Quatis, Brazil
Current Conditions -  °F | °C
As of 11:00 PM on Tuesday 21 Oct 2014 (Local Time) from SBSC Reporting Station
Light Rain Light Rain  
Wind Chill: 68°   Ceiling: 7000
Heat Index: 68°   Visibility: 6mi
Dew Point: 64°   Wind: 8mph
Humidity: 88%   Direction: 150°SSE
Pressure: 30.18"   Gusts: NA
Location:  22.41°S, 44.26°W
Report Text: SBSC 220100Z 15007KT 9000 -RA FEW011 SCT025 BKN070 20/18 Q1022
Loading
Personal Weather Stations






























Interactive Weather Map
Tropical Storm Tracking
New forecast layout! Learn more

10-Day Weather Forecast

Advertisements
Track Severe Weather on mobile